createdAt,value
2023-01-18T00:04:18.329Z,38.45
2023-01-18T00:09:24.204Z,38.47
2023-01-18T00:14:31.080Z,34.70
2023-01-18T00:19:37.663Z,36.03
2023-01-18T00:24:43.385Z,34.90
2023-01-18T00:29:49.659Z,30.83
2023-01-18T00:34:55.568Z,32.15
2023-01-18T00:40:01.732Z,24.23
2023-01-18T00:45:09.328Z,32.40
2023-01-18T00:50:15.338Z,37.25
2023-01-18T00:55:20.993Z,29.97
2023-01-18T01:00:28.246Z,20.65
2023-01-18T01:05:52.229Z,29.05
2023-01-18T01:11:07.673Z,25.75
2023-01-18T01:16:32.228Z,23.10
2023-01-18T01:21:56.330Z,21.73
2023-01-18T01:27:02.195Z,22.88
2023-01-18T01:32:08.995Z,18.70
2023-01-18T01:37:14.905Z,25.75
2023-01-18T01:42:20.459Z,31.03
2023-01-18T01:47:35.066Z,33.67
2023-01-18T01:52:43.177Z,25.48
2023-01-18T01:58:08.887Z,27.40
2023-01-18T02:03:19.570Z,26.13
2023-01-18T02:08:26.024Z,29.67
2023-01-18T02:13:32.280Z,20.67
2023-01-18T02:18:38.877Z,25.23
2023-01-18T02:24:02.526Z,22.50
2023-01-18T02:29:14.651Z,21.30
2023-01-18T02:34:36.628Z,25.40
2023-01-18T02:40:11.635Z,33.33
2023-01-18T02:45:47.855Z,31.05
2023-01-18T02:50:54.488Z,28.40
2023-01-18T03:01:35.957Z,26.67
2023-01-18T03:11:50.626Z,30.50
2023-01-18T03:17:05.623Z,19.95
2023-01-18T03:22:11.819Z,16.33
2023-01-18T03:27:35.622Z,26.93
2023-01-18T03:33:00.718Z,26.73
2023-01-18T03:38:06.425Z,22.75
2023-01-18T03:43:17.504Z,22.00
2023-01-18T03:48:23.615Z,27.13
2023-01-18T03:53:47.755Z,23.53
2023-01-18T03:58:55.081Z,22.52
2023-01-18T04:04:00.626Z,25.35
2023-01-18T04:09:06.133Z,20.23
2023-01-18T04:14:11.775Z,33.60
2023-01-18T04:19:17.788Z,15.70
2023-01-18T04:24:23.543Z,25.07
2023-01-18T04:29:29.719Z,17.43
2023-01-18T04:34:35.709Z,30.67
2023-01-18T04:39:41.384Z,27.90
2023-01-18T04:44:47.639Z,26.97
2023-01-18T04:54:58.983Z,25.48
2023-01-18T05:00:07.191Z,18.00
2023-01-18T05:05:13.860Z,35.80
2023-01-18T05:10:19.791Z,25.67
2023-01-18T05:15:24.987Z,37.33
2023-01-18T05:20:30.453Z,39.50
2023-01-18T05:25:36.290Z,34.58
2023-01-18T05:30:44.289Z,34.70
2023-01-18T05:35:51.118Z,43.28
2023-01-18T05:40:57.486Z,35.58
2023-01-18T05:46:06.868Z,28.40
2023-01-18T05:51:14.013Z,24.42
2023-01-18T05:56:20.175Z,38.88
2023-01-18T06:01:26.070Z,33.80
2023-01-18T06:06:33.914Z,34.27
2023-01-18T06:11:40.525Z,17.67
2023-01-18T06:16:46.656Z,37.42
2023-01-18T06:21:52.412Z,29.75
2023-01-18T06:26:58.893Z,36.17
2023-01-18T06:32:04.827Z,25.00
2023-01-18T06:37:13.121Z,42.17
2023-01-18T06:42:18.560Z,33.35
2023-01-18T06:47:24.563Z,38.40
2023-01-18T06:52:30.220Z,35.53
2023-01-18T06:57:35.996Z,19.30
2023-01-18T07:02:41.774Z,30.27
2023-01-18T07:07:47.824Z,26.93
2023-01-18T07:12:53.635Z,38.70
2023-01-18T07:17:59.754Z,34.80
2023-01-18T07:23:06.622Z,35.25
2023-01-18T07:28:12.015Z,33.03
2023-01-18T07:33:17.487Z,40.55
2023-01-18T07:38:23.715Z,27.92
2023-01-18T07:43:29.203Z,32.00
2023-01-18T07:48:36.390Z,38.50
2023-01-18T07:53:43.851Z,34.58
2023-01-18T07:58:50.039Z,22.73
2023-01-18T08:03:56.158Z,34.55
2023-01-18T08:09:01.923Z,18.00
2023-01-18T08:14:07.967Z,33.07
2023-01-18T08:19:13.921Z,33.63
2023-01-18T08:24:19.793Z,33.17
2023-01-18T08:29:26.173Z,34.10
2023-01-18T08:34:32.453Z,29.40
2023-01-18T08:39:38.357Z,28.77
2023-01-18T08:44:43.783Z,44.73
2023-01-18T08:49:49.432Z,37.50
2023-01-18T08:54:54.938Z,21.73
2023-01-18T09:00:01.605Z,36.13
2023-01-18T09:05:08.194Z,28.67
2023-01-18T09:10:17.989Z,40.90
2023-01-18T09:15:28.662Z,33.30
2023-01-18T09:20:37.428Z,37.03
2023-01-18T09:25:43.292Z,44.83
2023-01-18T09:30:48.896Z,45.30
2023-01-18T09:35:54.482Z,34.28
2023-01-18T09:41:01.707Z,49.42
2023-01-18T09:46:08.342Z,47.63
2023-01-18T09:51:21.640Z,34.95
2023-01-18T09:56:29.385Z,44.60
2023-01-18T10:01:36.358Z,54.42
2023-01-18T10:06:45.929Z,43.28
2023-01-18T10:12:02.251Z,42.05
2023-01-18T10:17:15.602Z,41.30
2023-01-18T10:22:26.797Z,49.10
2023-01-18T10:27:44.486Z,39.97
2023-01-18T10:33:01.359Z,44.20
2023-01-18T10:38:09.272Z,43.70
2023-01-18T10:43:22.061Z,47.10
2023-01-18T10:48:30.461Z,51.95
2023-01-18T10:53:37.744Z,51.95
2023-01-18T10:58:49.451Z,53.50
2023-01-18T11:03:56.942Z,52.08
2023-01-18T11:09:03.647Z,42.00
2023-01-18T11:14:25.352Z,45.25
2023-01-18T11:19:30.993Z,86.88
2023-01-18T11:24:37.219Z,64.53
2023-01-18T11:29:45.533Z,72.55
2023-01-18T11:34:54.728Z,75.78
2023-01-18T11:40:00.557Z,72.43
2023-01-18T11:45:15.703Z,84.97
2023-01-18T11:50:39.578Z,68.70
2023-01-18T11:56:09.334Z,96.75
2023-01-18T12:01:24.177Z,81.85
2023-01-18T12:06:32.903Z,81.05
2023-01-18T12:11:38.605Z,91.07
2023-01-18T12:17:05.022Z,98.80
2023-01-18T12:22:32.548Z,105.27
2023-01-18T12:27:46.155Z,94.60
2023-01-18T12:33:12.279Z,101.20
2023-01-18T12:38:25.557Z,97.22
2023-01-18T12:43:39.814Z,102.43
2023-01-18T12:48:45.993Z,115.47
2023-01-18T12:54:00.502Z,120.00
2023-01-18T12:59:11.049Z,115.80
2023-01-18T13:04:20.787Z,108.53
2023-01-18T13:09:36.115Z,111.28
2023-01-18T13:14:56.712Z,111.35
2023-01-18T13:20:06.711Z,112.20
2023-01-18T13:25:28.174Z,114.32
2023-01-18T13:30:46.670Z,120.30
2023-01-18T13:35:54.885Z,103.35
2023-01-18T13:41:05.882Z,106.30
2023-01-18T13:46:11.681Z,115.95
2023-01-18T13:51:40.935Z,112.20
2023-01-18T13:57:15.349Z,123.85
2023-01-18T14:02:43.490Z,99.73
2023-01-18T14:07:51.068Z,99.07
2023-01-18T14:12:58.403Z,97.38
2023-01-18T14:18:04.347Z,106.05
2023-01-18T14:23:16.283Z,112.38
2023-01-18T14:28:51.184Z,103.80
2023-01-18T14:33:59.419Z,112.85
2023-01-18T14:39:14.413Z,100.30
2023-01-18T14:44:22.466Z,96.20
2023-01-18T14:49:30.311Z,98.68
2023-01-18T14:54:36.552Z,109.50
2023-01-18T14:59:53.043Z,108.07
2023-01-18T15:05:13.799Z,115.93
2023-01-18T15:10:20.816Z,106.60
2023-01-18T15:15:33.119Z,99.90
2023-01-18T15:20:40.068Z,102.10
2023-01-18T15:25:46.379Z,116.38
2023-01-18T15:36:00.192Z,112.53
2023-01-18T15:41:12.467Z,115.13
2023-01-18T15:46:19.978Z,121.55
2023-01-18T15:51:45.595Z,141.50
2023-01-18T15:56:51.350Z,134.07
2023-01-18T16:02:13.378Z,117.57
2023-01-18T16:07:35.711Z,138.65
2023-01-18T16:12:41.916Z,146.07
2023-01-18T16:17:47.609Z,155.82
2023-01-18T16:22:55.268Z,135.77
2023-01-18T16:28:01.841Z,130.07
2023-01-18T16:33:25.713Z,148.30
2023-01-18T16:38:31.404Z,148.57
2023-01-18T16:43:37.504Z,145.63
2023-01-18T16:48:42.959Z,139.38
2023-01-18T16:53:50.853Z,132.95
2023-01-18T16:58:56.477Z,136.98
2023-01-18T17:04:01.963Z,125.03
2023-01-18T17:09:28.110Z,137.00
2023-01-18T17:14:35.869Z,123.70
2023-01-18T17:19:44.019Z,126.03
2023-01-18T17:24:50.573Z,122.53
2023-01-18T17:29:56.335Z,133.32
2023-01-18T17:35:02.545Z,131.25
2023-01-18T17:40:19.722Z,133.53
2023-01-18T17:45:29.199Z,124.25
2023-01-18T17:55:43.103Z,125.00
2023-01-18T18:00:49.322Z,127.78
2023-01-18T18:06:00.058Z,134.25
2023-01-18T18:11:09.128Z,116.43
2023-01-18T18:16:18.795Z,111.65
2023-01-18T18:21:28.022Z,117.95
2023-01-18T18:26:33.379Z,119.05
2023-01-18T18:31:40.752Z,107.65
2023-01-18T18:36:47.059Z,111.55
2023-01-18T18:41:52.524Z,105.90
2023-01-18T18:46:58.348Z,103.13
2023-01-18T18:52:04.265Z,101.83
2023-01-18T18:57:10.380Z,96.00
2023-01-18T19:02:16.478Z,100.80
2023-01-18T19:07:22.089Z,92.10
2023-01-18T19:12:27.688Z,95.30
2023-01-18T19:17:32.933Z,105.65
2023-01-18T19:22:40.285Z,112.93
2023-01-18T19:27:46.282Z,102.95
2023-01-18T19:32:52.773Z,101.25
2023-01-18T19:37:58.398Z,103.28
2023-01-18T19:43:03.913Z,95.28
2023-01-18T19:48:10.035Z,98.85
2023-01-18T19:53:15.788Z,90.22
2023-01-18T19:58:21.231Z,102.70
2023-01-18T20:03:27.020Z,103.63
2023-01-18T20:08:32.874Z,100.13
2023-01-18T20:13:38.652Z,101.07
2023-01-18T20:18:44.084Z,104.63
2023-01-18T20:23:50.037Z,99.93
2023-01-18T20:28:57.409Z,105.18
2023-01-18T20:34:03.061Z,95.40
2023-01-18T20:39:09.170Z,94.43
2023-01-18T20:44:15.342Z,95.53
2023-01-18T20:49:27.313Z,98.28
2023-01-18T20:54:39.656Z,101.40
2023-01-18T20:59:45.696Z,99.63
2023-01-18T21:04:51.291Z,106.60
2023-01-18T21:09:57.015Z,104.73
2023-01-18T21:15:02.753Z,101.67
2023-01-18T21:20:08.228Z,99.22
2023-01-18T21:25:14.016Z,110.40
2023-01-18T21:30:20.072Z,92.40
2023-01-18T21:35:26.124Z,104.00
2023-01-18T21:40:32.279Z,96.93
2023-01-18T21:45:59.195Z,107.82
2023-01-18T21:51:24.028Z,111.38
2023-01-18T21:56:29.495Z,116.43
2023-01-18T22:01:40.667Z,107.40
2023-01-18T22:06:46.655Z,125.05
2023-01-18T22:11:52.621Z,119.67
2023-01-18T22:16:58.067Z,119.33
2023-01-18T22:22:04.221Z,125.70
2023-01-18T22:27:10.526Z,117.22
2023-01-18T22:32:16.007Z,120.15
2023-01-18T22:37:21.858Z,112.88
2023-01-18T22:42:27.929Z,123.63
2023-01-18T22:47:33.755Z,128.43
2023-01-18T22:52:39.882Z,132.87
2023-01-18T22:57:45.585Z,110.50
2023-01-18T23:02:51.034Z,103.23
2023-01-18T23:07:56.379Z,112.20
2023-01-18T23:13:01.985Z,117.50
2023-01-18T23:18:07.864Z,124.07
2023-01-18T23:23:13.277Z,150.70
2023-01-18T23:28:38.784Z,136.73
2023-01-18T23:33:44.247Z,118.97
2023-01-18T23:39:08.198Z,126.10
2023-01-18T23:44:31.920Z,120.03
2023-01-18T23:49:56.309Z,117.57
2023-01-18T23:55:02.325Z,134.25
